Time;durP1;ratioP1;P1;durP2;ratioP2;P2;SDS_P1;SDS_P2;PMS_P1;PMS_P2;Temp;Humidity;BMP_temperature;BMP_pressure;BME280_temperature;BME280_humidity;BME280_pressure;Samples;Min_cycle;Max_cycle;Signal;HPM_P1;HPM_P2
2023/03/26 00:01:37;;;;;;;8.45;2.55;;;;;;;;;;5035086;28;20060;-85
2023/03/26 00:04:05;;;;;;;13.07;3.10;;;8.90;99.90;;;;;;5022160;28;20109;-86
2023/03/26 00:06:36;;;;;;;13.50;3.45;;;8.90;99.90;;;;;;5024684;28;20041;-87
2023/03/26 00:09:02;;;;;;;10.07;2.53;;;8.80;99.90;;;;;;5022243;28;20114;-89
2023/03/26 00:11:29;;;;;;;10.05;3.10;;;8.80;99.90;;;;;;5020638;28;20088;-88
2023/03/26 00:13:58;;;;;;;11.85;2.85;;;10.50;99.90;;;;;;5024694;28;20025;-90
2023/03/26 00:16:26;;;;;;;11.00;2.83;;;8.90;99.90;;;;;;5016370;28;20045;-88
2023/03/26 00:18:52;;;;;;;8.50;2.22;;;8.80;99.90;;;;;;5017143;28;20464;-87
2023/03/26 00:21:21;;;;;;;10.98;2.88;;;8.90;99.90;;;;;;5018270;28;20098;-88
2023/03/26 00:23:48;;;;;;;7.05;2.58;;;;;;;;;;5015161;28;20022;-87
2023/03/26 00:26:16;;;;;;;13.35;2.92;;;8.80;99.90;;;;;;5017559;28;20076;-89
2023/03/26 00:28:42;;;;;;;15.32;3.03;;;8.80;99.90;;;;;;5018773;28;20152;-89
2023/03/26 00:31:11;;;;;;;10.95;3.10;;;8.80;99.90;;;;;;5026527;28;20037;-88
2023/03/26 00:33:39;;;;;;;14.65;3.47;;;;;;;;;;5019393;28;20030;-89
2023/03/26 00:36:09;;;;;;;9.38;2.40;;;8.80;99.90;;;;;;5021315;28;20052;-87
2023/03/26 00:38:37;;;;;;;10.75;2.90;;;;;;;;;;5017841;28;22621;-90
2023/03/26 00:41:16;;;;;;;16.08;3.28;;;8.80;99.90;;;;;;5019729;28;20112;-86
2023/03/26 00:43:45;;;;;;;15.65;3.33;;;8.90;99.90;;;;;;5016405;28;20034;-85
2023/03/26 00:46:11;;;;;;;15.38;3.67;;;;;;;;;;5014179;28;20038;-87
2023/03/26 00:48:37;;;;;;;14.77;3.00;;;;;;;;;;5019804;28;20057;-88
2023/03/26 00:51:04;;;;;;;17.67;3.70;;;8.90;99.90;;;;;;5018577;28;20025;-88
2023/03/26 00:53:31;;;;;;;13.80;3.42;;;9.00;99.90;;;;;;5011275;28;20026;-87
2023/03/26 00:55:59;;;;;;;12.80;3.53;;;9.00;99.90;;;;;;5021942;28;20034;-90
2023/03/26 00:58:25;;;;;;;8.45;2.72;;;;;;;;;;5018081;28;20417;-88
2023/03/26 01:00:56;;;;;;;14.98;2.83;;;9.00;99.90;;;;;;5008003;28;20034;-87
2023/03/26 01:03:29;;;;;;;10.02;2.60;;;9.00;99.90;;;;;;5020915;28;20022;-88
2023/03/26 01:06:09;;;;;;;10.75;3.90;;;9.00;99.90;;;;;;5025497;28;20048;-86
2023/03/26 01:08:35;;;;;;;10.55;3.13;;;;;;;;;;5017912;28;20042;-88
2023/03/26 01:11:12;;;;;;;19.23;3.30;;;9.00;99.90;;;;;;5030341;28;20372;-84
2023/03/26 01:13:44;;;;;;;11.85;3.25;;;9.00;99.90;;;;;;5017813;28;20033;-88
2023/03/26 01:16:26;;;;;;;11.57;3.22;;;9.00;99.90;;;;;;5018984;28;20030;-86
2023/03/26 01:18:53;;;;;;;14.48;3.00;;;9.00;99.90;;;;;;5021969;28;20479;-88
2023/03/26 01:21:28;;;;;;;11.10;3.08;;;9.00;99.90;;;;;;5000710;28;20022;-87
2023/03/26 01:24:05;;;;;;;12.32;3.67;;;9.10;99.90;;;;;;5016750;28;20018;-87
2023/03/26 01:26:43;;;;;;;9.32;2.40;;;;;;;;;;5005472;28;20045;-88
2023/03/26 01:29:41;;;;;;;9.32;2.40;;;9.10;99.90;;;;;;5021477;28;20098;-87
2023/03/26 01:32:33;;;;;;;8.82;2.33;;;9.00;99.90;;;;;;4996456;28;20157;-86
2023/03/26 01:35:25;;;;;;;10.10;2.65;;;9.00;99.90;;;;;;5019548;28;20062;-86
2023/03/26 01:38:09;;;;;;;8.68;2.72;;;;;;;;;;5019650;28;20053;-89
2023/03/26 01:40:45;;;;;;;13.32;2.80;;;8.90;99.90;;;;;;5019565;28;20026;-88
2023/03/26 01:43:55;;;;;;;13.25;3.50;;;8.90;99.90;;;;;;5036826;28;20027;-89
2023/03/26 01:46:24;;;;;;;10.02;2.50;;;8.90;99.90;;;;;;4995013;28;20261;-88
2023/03/26 01:48:50;;;;;;;10.32;2.83;;;;;;;;;;5024501;28;20010;-86
2023/03/26 01:51:34;;;;;;;11.75;2.45;;;8.90;99.90;;;;;;5024586;28;20042;-89
2023/03/26 01:54:08;;;;;;;12.15;2.60;;;8.90;99.90;;;;;;5018996;28;21017;-88
2023/03/26 01:56:49;;;;;;;9.20;2.75;;;8.90;99.90;;;;;;5018970;28;20042;-85
2023/03/26 01:59:33;;;;;;;12.38;2.70;;;8.80;99.90;;;;;;5021721;28;20026;-83
2023/03/26 02:02:31;;;;;;;10.85;2.53;;;8.80;99.90;;;;;;5031742;28;20494;-86
2023/03/26 02:05:09;;;;;;;13.93;2.65;;;8.80;99.90;;;;;;5030396;28;20113;-88
2023/03/26 02:07:49;;;;;;;12.65;3.75;;;8.80;99.90;;;;;;5017130;28;20079;-86
2023/03/26 02:10:37;;;;;;;13.98;2.90;;;;;;;;;;5021989;28;20025;-87
2023/03/26 02:13:03;;;;;;;14.07;2.85;;;;;;;;;;5018578;28;20391;-88
2023/03/26 02:15:29;;;;;;;8.38;2.60;;;;;;;;;;5012472;28;21234;-88
2023/03/26 02:17:55;;;;;;;9.85;2.60;;;;;;;;;;5030109;28;20117;-88
2023/03/26 02:20:21;;;;;;;10.80;2.75;;;;;;;;;;5016093;28;20056;-86
2023/03/26 02:22:47;;;;;;;12.52;2.30;;;;;;;;;;5012374;28;20074;-88
2023/03/26 02:25:20;;;;;;;11.25;3.08;;;8.60;99.90;;;;;;5012628;28;20030;-87
2023/03/26 02:27:46;;;;;;;10.38;2.38;;;;;;;;;;5023009;28;20533;-88
2023/03/26 02:30:15;;;;;;;11.15;2.60;;;8.60;99.90;;;;;;5019354;28;20030;-88
2023/03/26 02:32:42;;;;;;;8.02;2.80;;;;;;;;;;5021740;28;20038;-87
2023/03/26 02:35:08;;;;;;;7.13;2.13;;;;;;;;;;5016600;28;20248;-87
2023/03/26 02:37:35;;;;;;;12.70;2.40;;;;;;;;;;5031864;28;20030;-89
2023/03/26 02:40:01;;;;;;;15.27;2.72;;;;;;;;;;5024857;28;20021;-85
2023/03/26 02:42:27;;;;;;;8.38;2.13;;;;;;;;;;5016789;28;20022;-87
2023/03/26 02:44:53;;;;;;;12.50;2.60;;;;;;;;;;5017247;28;20025;-85
2023/03/26 02:47:19;;;;;;;9.55;2.17;;;8.50;99.90;;;;;;5022830;28;20044;-86
2023/03/26 02:49:45;;;;;;;14.43;2.30;;;;;;;;;;5015133;28;20065;-86
2023/03/26 02:52:15;;;;;;;9.32;2.38;;;;;;;;;;5014106;28;20309;-86
2023/03/26 02:54:41;;;;;;;7.38;2.08;;;;;;;;;;5016679;28;20118;-87
2023/03/26 02:57:07;;;;;;;8.23;2.03;;;;;;;;;;5020190;28;20041;-86
2023/03/26 02:59:33;;;;;;;15.13;3.05;;;;;;;;;;4999178;28;20041;-86
2023/03/26 03:02:00;;;;;;;10.73;2.78;;;;;;;;;;5018124;28;20471;-88
2023/03/26 03:04:26;;;;;;;12.18;2.85;;;;;;;;;;5016508;28;20022;-88
2023/03/26 03:06:56;;;;;;;7.97;2.10;;;;;;;;;;5021110;28;20021;-87
2023/03/26 03:09:22;;;;;;;13.38;2.40;;;;;;;;;;5018139;28;20477;-87
2023/03/26 03:11:48;;;;;;;9.70;2.05;;;;;;;;;;5015777;28;20139;-84
2023/03/26 03:14:14;;;;;;;12.63;2.53;;;;;;;;;;5009929;28;20066;-86
2023/03/26 03:16:40;;;;;;;14.05;2.50;;;;;;;;;;5001427;28;20041;-87
2023/03/26 03:19:07;;;;;;;13.05;2.45;;;;;;;;;;5012513;28;20027;-87
2023/03/26 03:21:32;;;;;;;6.60;1.80;;;8.60;99.90;;;;;;5014755;28;20021;-86
2023/03/26 03:23:58;;;;;;;8.13;2.17;;;;;;;;;;5017792;28;20164;-86
2023/03/26 03:26:28;;;;;;;13.80;2.90;;;8.50;99.90;;;;;;5021633;28;20107;-85
2023/03/26 03:28:56;;;;;;;11.45;2.10;;;8.50;99.90;;;;;;5024467;28;20029;-85
2023/03/26 03:31:23;;;;;;;8.13;2.63;;;8.50;99.90;;;;;;5022870;28;20041;-84
2023/03/26 03:33:50;;;;;;;10.93;2.28;;;8.50;99.90;;;;;;5020851;28;20030;-87
2023/03/26 03:36:20;;;;;;;10.98;2.22;;;8.50;99.90;;;;;;5021148;28;20030;-84
2023/03/26 03:38:47;;;;;;;11.88;2.55;;;;;;;;;;5018925;28;20026;-85
2023/03/26 03:41:13;;;;;;;12.15;2.05;;;;;;;;;;5023496;28;20026;-87
2023/03/26 03:43:39;;;;;;;9.18;2.05;;;8.40;99.90;;;;;;5019911;28;20124;-86
2023/03/26 03:46:04;;;;;;;8.88;2.30;;;8.50;99.90;;;;;;5021059;28;20062;-83
2023/03/26 03:48:32;;;;;;;8.20;1.90;;;;;;;;;;5021525;28;20034;-85
2023/03/26 03:50:57;;;;;;;11.02;2.47;;;8.50;99.90;;;;;;5022216;28;20414;-86
2023/03/26 03:53:25;;;;;;;12.82;2.80;;;8.50;99.90;;;;;;5019388;28;20030;-86
2023/03/26 03:55:54;;;;;;;9.32;2.45;;;7.70;99.90;;;;;;5015356;28;21209;-85
2023/03/26 03:58:23;;;;;;;7.17;2.23;;;8.50;99.90;;;;;;5019748;28;20037;-87
2023/03/26 04:00:51;;;;;;;12.48;2.22;;;8.50;99.90;;;;;;5023988;28;20026;-86
2023/03/26 04:03:18;;;;;;;11.13;2.72;;;8.60;99.90;;;;;;5018521;28;20034;-87
2023/03/26 04:05:48;;;;;;;10.05;2.22;;;8.60;99.90;;;;;;5021024;28;20045;-87
2023/03/26 04:08:15;;;;;;;10.90;2.28;;;11.20;99.90;;;;;;5020061;28;20033;-84
2023/03/26 04:10:42;;;;;;;14.48;2.92;;;8.50;99.90;;;;;;5015230;28;20032;-90
2023/03/26 04:13:08;;;;;;;9.07;2.50;;;;;;;;;;5018614;28;20030;-82
2023/03/26 04:15:35;;;;;;;7.97;2.08;;;8.50;99.90;;;;;;5020407;28;20133;-86
2023/03/26 04:18:01;;;;;;;11.88;2.63;;;;;;;;;;5001581;28;20184;-87
2023/03/26 04:20:27;;;;;;;16.45;2.63;;;;;;;;;;5019354;28;20052;-87
2023/03/26 04:22:53;;;;;;;12.10;2.55;;;8.60;99.90;;;;;;5019598;28;20034;-83
2023/03/26 04:25:20;;;;;;;10.27;2.33;;;8.50;99.90;;;;;;5017688;28;20022;-87
2023/03/26 04:27:46;;;;;;;15.25;2.40;;;;;;;;;;5015202;28;20034;-84
2023/03/26 04:30:18;;;;;;;11.50;2.58;;;8.50;99.90;;;;;;5018087;28;20024;-86
2023/03/26 04:32:45;;;;;;;8.15;2.20;;;;;;;;;;5021403;28;20117;-86
2023/03/26 04:35:15;;;;;;;12.30;2.85;;;8.50;99.90;;;;;;5018840;28;20176;-87
2023/03/26 04:37:43;;;;;;;9.48;2.05;;;8.50;99.90;;;;;;5019620;28;20026;-87
2023/03/26 04:40:20;;;;;;;12.50;2.40;;;8.50;99.90;;;;;;5019270;28;20089;-88
2023/03/26 04:42:47;;;;;;;11.77;2.38;;;8.50;99.90;;;;;;5017587;28;20041;-87
2023/03/26 04:45:16;;;;;;;7.25;2.33;;;8.50;99.90;;;;;;5022771;28;20022;-87
2023/03/26 04:47:42;;;;;;;8.73;2.10;;;8.50;99.90;;;;;;5016924;28;20030;-84
2023/03/26 04:50:10;;;;;;;10.98;3.17;;;8.40;99.90;;;;;;5023168;28;20041;-85
2023/03/26 04:52:36;;;;;;;9.65;2.47;;;9.40;99.90;;;;;;5015475;28;20022;-87
2023/03/26 04:55:03;;;;;;;9.60;2.22;;;8.40;99.90;;;;;;5020222;28;20038;-86
2023/03/26 04:57:33;;;;;;;7.13;2.13;;;8.40;99.90;;;;;;5022229;28;20034;-86
2023/03/26 04:59:59;;;;;;;;;;;8.40;99.90;;;;;;5021210;28;20033;-84
2023/03/26 05:02:25;;;;;;;10.07;2.55;;;;;;;;;;5023640;28;19913;-85
2023/03/26 05:04:51;;;;;;;11.57;3.05;;;;;;;;;;5023074;28;20025;-86
2023/03/26 05:07:21;;;;;;;8.00;2.25;;;8.50;99.90;;;;;;5030780;28;20033;-88
2023/03/26 05:09:47;;;;;;;8.00;2.10;;;;;;;;;;5033667;28;20034;-87
2023/03/26 05:12:13;;;;;;;12.18;2.47;;;;;;;;;;5018693;28;20042;-85
2023/03/26 05:14:38;;;;;;;6.43;2.10;;;8.50;99.90;;;;;;5020648;28;20045;-86
2023/03/26 05:17:05;;;;;;;7.05;2.00;;;;;;;;;;5017518;28;20042;-87
2023/03/26 05:19:31;;;;;;;11.57;2.33;;;8.50;99.90;;;;;;5017496;28;20542;-84
2023/03/26 05:21:57;;;;;;;8.18;2.33;;;8.50;99.90;;;;;;5023701;28;20022;-87
2023/03/26 05:24:23;;;;;;;6.53;1.88;;;;;;;;;;5021474;28;20383;-86
2023/03/26 05:26:50;;;;;;;6.78;1.80;;;8.50;99.90;;;;;;5021951;28;20040;-86
2023/03/26 05:29:16;;;;;;;8.18;2.13;;;8.50;99.90;;;;;;5020554;28;20484;-87
2023/03/26 05:31:43;;;;;;;16.50;2.67;;;;;;;;;;5021190;28;20026;-87
2023/03/26 05:34:09;;;;;;;10.65;2.47;;;8.50;99.90;;;;;;5020797;28;20041;-84
2023/03/26 05:36:35;;;;;;;8.60;1.98;;;;;;;;;;5016360;28;20080;-88
2023/03/26 05:39:02;;;;;;;10.68;2.38;;;8.50;99.90;;;;;;5019453;28;20109;-83
2023/03/26 05:41:28;;;;;;;6.60;1.90;;;;;;;;;;5021676;28;20061;-88
2023/03/26 05:43:54;;;;;;;6.85;1.98;;;;;;;;;;5020750;28;20029;-86
2023/03/26 05:46:21;;;;;;;6.70;2.35;;;8.50;99.90;;;;;;5018827;28;20179;-89
2023/03/26 05:48:48;;;;;;;10.90;2.65;;;8.40;99.90;;;;;;5019758;28;20106;-88
2023/03/26 05:51:14;;;;;;;12.75;2.47;;;;;;;;;;5018344;28;20120;-89
2023/03/26 05:53:40;;;;;;;14.40;2.20;;;8.40;99.90;;;;;;5014343;28;20033;-87
2023/03/26 05:56:08;;;;;;;9.32;2.60;;;8.30;99.90;;;;;;5012599;28;20026;-87
2023/03/26 05:58:35;;;;;;;10.20;2.53;;;8.40;99.90;;;;;;5018279;28;20049;-87
2023/03/26 06:01:07;;;;;;;10.07;2.67;;;9.40;99.90;;;;;;5018528;28;20089;-86
2023/03/26 06:03:34;;;;;;;8.05;2.65;;;8.40;99.90;;;;;;5012424;28;20033;-88
2023/03/26 06:06:00;;;;;;;9.82;2.70;;;8.30;99.90;;;;;;5013326;28;20030;-89
2023/03/26 06:08:26;;;;;;;7.15;2.50;;;;;;;;;;5015005;28;21334;-87
2023/03/26 06:11:00;;;;;;;8.55;2.03;;;8.20;99.90;;;;;;5015815;28;20028;-87
2023/03/26 06:13:26;;;;;;;9.48;2.58;;;;;;;;;;5038663;28;20026;-86
2023/03/26 06:15:51;;;;;;;8.10;2.30;;;8.20;99.90;;;;;;5025009;28;20026;-87
2023/03/26 06:18:19;;;;;;;9.32;1.80;;;;;;;;;;5025403;28;20054;-87
2023/03/26 06:20:45;;;;;;;8.57;2.03;;;8.10;99.90;;;;;;5024183;28;20399;-86
2023/03/26 06:23:11;;;;;;;11.43;1.90;;;;;;;;;;5022508;28;20037;-86
2023/03/26 06:25:37;;;;;;;7.65;1.92;;;8.20;99.90;;;;;;5024199;28;20074;-88
2023/03/26 06:28:03;;;;;;;13.13;2.70;;;8.10;99.90;;;;;;5028349;28;20018;-85
2023/03/26 06:30:29;;;;;;;7.95;1.60;;;8.20;99.90;;;;;;5019961;28;20022;-87
2023/03/26 06:32:55;;;;;;;10.23;2.00;;;8.10;99.90;;;;;;5025296;28;20018;-86
2023/03/26 06:35:21;;;;;;;10.40;2.05;;;;;;;;;;5022278;28;20054;-85
2023/03/26 06:37:46;;;;;;;6.85;2.10;;;8.10;99.90;;;;;;5034823;28;20243;-88
2023/03/26 06:40:12;;;;;;;9.82;2.60;;;;;;;;;;5021927;28;20025;-87
2023/03/26 06:42:38;;;;;;;10.50;2.35;;;8.00;99.90;;;;;;5020806;28;20722;-85
2023/03/26 06:45:04;;;;;;;6.63;2.50;;;8.00;99.90;;;;;;5018308;28;20030;-86
2023/03/26 06:47:30;;;;;;;5.57;1.92;;;8.00;99.90;;;;;;5022245;28;20041;-86
2023/03/26 06:49:56;;;;;;;9.70;2.75;;;;;;;;;;5018196;28;20014;-86
2023/03/26 06:52:22;;;;;;;8.95;2.15;;;;;;;;;;5009575;28;20033;-86
2023/03/26 06:54:47;;;;;;;6.93;2.25;;;8.00;99.90;;;;;;5025103;28;20147;-86
2023/03/26 06:57:14;;;;;;;7.82;1.63;;;;;;;;;;5020056;28;20073;-84
2023/03/26 06:59:41;;;;;;;8.10;2.00;;;8.00;99.90;;;;;;5020167;28;20041;-82
2023/03/26 07:02:10;;;;;;;7.28;1.95;;;8.00;99.90;;;;;;5019870;28;20031;-85
2023/03/26 07:04:36;;;;;;;8.60;2.00;;;8.60;99.90;;;;;;5020662;28;20033;-85
2023/03/26 07:07:02;;;;;;;8.60;2.05;;;8.00;99.90;;;;;;5021756;28;20557;-87
2023/03/26 07:09:30;;;;;;;6.40;2.00;;;;;;;;;;5035243;28;20022;-88
2023/03/26 07:11:57;;;;;;;7.78;2.08;;;8.10;99.90;;;;;;5033746;28;20026;-88
2023/03/26 07:14:23;;;;;;;5.07;1.67;;;;;;;;;;5011849;28;20166;-83
2023/03/26 07:16:50;;;;;;;8.75;1.70;;;8.20;99.90;;;;;;5019117;28;20034;-86
2023/03/26 07:19:16;;;;;;;6.05;1.40;;;8.30;99.90;;;;;;5017803;28;20077;-88
2023/03/26 07:21:42;;;;;;;6.70;1.65;;;;;;;;;;5003282;28;20034;-85
2023/03/26 07:24:12;;;;;;;7.25;1.63;;;;;;;;;;5018970;28;20293;-86
2023/03/26 07:26:54;;;;;;;7.10;1.60;;;8.70;99.90;;;;;;5020686;28;20539;-87
2023/03/26 07:29:32;;;;;;;5.55;1.60;;;8.80;99.90;;;;;;5021088;28;20060;-85
2023/03/26 07:32:33;;;;;;;5.53;1.70;;;8.80;99.90;;;;;;5017905;28;20026;-86
2023/03/26 07:35:04;;;;;;;5.95;2.03;;;8.80;99.90;;;;;;5003428;28;20038;-86
2023/03/26 07:37:58;;;;;;;6.22;1.80;;;8.90;99.90;;;;;;5020787;28;20030;-86
2023/03/26 07:40:43;;;;;;;4.45;1.60;;;8.90;99.90;;;;;;5026775;28;20034;-88
2023/03/26 07:43:24;;;;;;;5.82;1.90;;;9.00;99.90;;;;;;5016972;28;20129;-85
2023/03/26 07:45:53;;;;;;;5.85;1.80;;;8.90;99.90;;;;;;5015157;28;20030;-84
2023/03/26 07:48:27;;;;;;;8.05;1.85;;;9.10;99.90;;;;;;5015702;28;20022;-88
2023/03/26 07:50:54;;;;;;;7.53;2.20;;;9.20;99.90;;;;;;5018635;28;20022;-88
2023/03/26 07:53:20;;;;;;;8.00;2.15;;;9.20;99.90;;;;;;5016912;28;20215;-86
2023/03/26 07:56:00;;;;;;;7.22;1.90;;;9.30;99.90;;;;;;5010469;28;20376;-85
2023/03/26 07:58:39;;;;;;;7.50;2.67;;;10.80;99.90;;;;;;5018547;28;20125;-86
2023/03/26 08:01:19;;;;;;;5.60;1.63;;;9.70;99.90;;;;;;5015505;28;20038;-87
2023/03/26 08:04:22;;;;;;;8.10;2.10;;;9.70;99.90;;;;;;5014211;28;20026;-88
2023/03/26 08:07:02;;;;;;;7.95;2.10;;;10.00;99.90;;;;;;5018739;28;20022;-84
2023/03/26 08:09:54;;;;;;;8.27;2.28;;;11.90;99.90;;;;;;5024769;28;20053;-87
2023/03/26 08:12:36;;;;;;;6.85;2.20;;;10.30;99.90;;;;;;5020591;28;20030;-85
2023/03/26 08:15:52;;;;;;;6.15;2.30;;;10.30;99.90;;;;;;5017012;28;20041;-86
2023/03/26 08:18:40;;;;;;;5.53;2.28;;;11.00;99.90;;;;;;4985426;28;20030;-86
2023/03/26 08:21:17;;;;;;;6.85;2.13;;;10.30;99.90;;;;;;4981706;28;20059;-84
2023/03/26 08:24:08;;;;;;;5.72;1.90;;;10.30;99.90;;;;;;5011984;28;20095;-86
2023/03/26 08:26:34;;;;;;;;;;;10.30;99.90;;;;;;5020307;28;20080;-86
2023/03/26 08:29:08;;;;;;;4.07;1.60;;;10.40;99.90;;;;;;5034712;28;20306;-87
2023/03/26 08:31:38;;;;;;;4.53;1.30;;;10.40;99.90;;;;;;5023772;28;20125;-88
2023/03/26 08:34:05;;;;;;;5.00;1.45;;;10.50;99.90;;;;;;5022405;28;20022;-87
2023/03/26 08:36:30;;;;;;;4.18;2.03;;;10.50;99.90;;;;;;5027135;28;20030;-89
2023/03/26 08:38:58;;;;;;;5.72;1.83;;;;;;;;;;5027195;28;20032;-87
2023/03/26 08:41:58;;;;;;;4.20;1.17;;;10.50;99.90;;;;;;5044460;28;20022;-87
2023/03/26 08:44:46;;;;;;;6.00;1.50;;;10.50;99.90;;;;;;5037082;28;20028;-87
2023/03/26 08:47:26;;;;;;;4.47;1.30;;;10.50;99.90;;;;;;5030366;28;20038;-87
2023/03/26 08:49:52;;;;;;;4.95;1.20;;;;;;;;;;5027601;28;20030;-89
2023/03/26 08:52:33;;;;;;;4.65;1.27;;;10.80;99.90;;;;;;5024951;28;20067;-89
2023/03/26 08:54:59;;;;;;;5.13;1.15;;;;;;;;;;5027144;28;20025;-91
2023/03/26 08:57:49;;;;;;;2.92;0.90;;;10.90;99.90;;;;;;5025894;28;20040;-88
2023/03/26 09:00:32;;;;;;;4.32;1.10;;;11.00;99.90;;;;;;5027214;28;20022;-90
2023/03/26 09:03:16;;;;;;;4.85;1.30;;;11.00;99.90;;;;;;5019303;28;20026;-88
2023/03/26 09:06:04;;;;;;;5.65;1.25;;;11.00;99.90;;;;;;5025402;28;20030;-89
2023/03/26 09:09:03;;;;;;;1.60;0.65;;;10.60;99.90;;;;;;5024108;28;20065;-87
2023/03/26 09:11:52;;;;;;;4.00;1.10;;;11.30;99.90;;;;;;5024761;28;20030;-88
2023/03/26 09:14:36;;;;;;;4.70;1.00;;;11.30;99.90;;;;;;5024538;28;20052;-88
2023/03/26 09:17:49;;;;;;;4.07;0.98;;;11.40;99.90;;;;;;5027084;28;20034;-86
2023/03/26 09:20:52;;;;;;;1.30;0.88;;;11.30;99.90;;;;;;5025130;28;20023;-87
2023/03/26 09:23:33;;;;;;;5.70;1.13;;;11.20;99.90;;;;;;5020098;28;20076;-90
2023/03/26 09:25:59;;;;;;;2.00;0.68;;;;;;;;;;5027387;28;20097;-91
2023/03/26 09:28:59;;;;;;;2.75;0.93;;;11.00;99.90;;;;;;5027119;28;20048;-88
2023/03/26 09:32:02;;;;;;;4.53;1.00;;;10.90;99.90;;;;;;5030062;28;20030;-88
2023/03/26 09:34:52;;;;;;;2.92;1.38;;;10.70;99.90;;;;;;5030955;28;20032;-86
2023/03/26 09:37:31;;;;;;;3.30;0.77;;;10.90;99.90;;;;;;5026203;28;20042;-88
2023/03/26 09:40:17;;;;;;;2.63;0.77;;;10.90;99.90;;;;;;5028865;28;20026;-89
2023/03/26 09:42:44;;;;;;;2.53;0.80;;;11.10;99.90;;;;;;5028805;28;20487;-89
2023/03/26 09:45:21;;;;;;;2.83;0.90;;;11.40;99.90;;;;;;5030823;28;20029;-87
2023/03/26 09:48:11;;;;;;;3.03;0.90;;;11.60;99.90;;;;;;5030431;28;20026;-87
2023/03/26 09:51:16;;;;;;;4.28;1.10;;;11.70;99.90;;;;;;5026336;28;20034;-88
2023/03/26 09:54:13;;;;;;;4.00;0.93;;;12.00;99.90;;;;;;5023576;28;20029;-89
2023/03/26 09:57:16;;;;;;;4.50;0.80;;;12.00;99.90;;;;;;5024873;28;20101;-89
2023/03/26 10:00:08;;;;;;;4.90;1.10;;;11.80;99.90;;;;;;5029448;28;20022;-87
2023/03/26 10:03:12;;;;;;;4.90;1.00;;;11.80;99.90;;;;;;5027625;28;20021;-90
2023/03/26 10:05:40;;;;;;;4.43;1.00;;;;;;;;;;5025993;28;20285;-88
2023/03/26 10:08:33;;;;;;;4.68;0.98;;;11.90;99.90;;;;;;5032075;28;20046;-89
2023/03/26 10:11:44;;;;;;;5.63;1.25;;;11.90;99.90;;;;;;5030603;28;20030;-86
2023/03/26 10:14:39;;;;;;;4.82;1.25;;;11.90;99.90;;;;;;5025961;28;20034;-89
2023/03/26 10:17:24;;;;;;;4.70;1.20;;;12.00;99.90;;;;;;5031997;28;20037;-88
2023/03/26 10:20:29;;;;;;;5.45;1.35;;;12.10;99.90;;;;;;5035184;28;20014;-89
2023/03/26 10:23:22;;;;;;;5.35;0.90;;;12.10;99.90;;;;;;5042000;28;20033;-89
2023/03/26 10:26:04;;;;;;;7.05;1.33;;;12.20;99.90;;;;;;5028995;28;20029;-90
2023/03/26 10:28:40;;;;;;;4.00;1.02;;;12.20;99.90;;;;;;5027549;28;20014;-88
2023/03/26 10:31:28;;;;;;;3.95;1.10;;;12.10;99.90;;;;;;5027763;28;20034;-87
2023/03/26 10:34:02;;;;;;;4.65;1.00;;;12.10;99.90;;;;;;5026540;28;20041;-90
2023/03/26 10:36:49;;;;;;;3.40;0.88;;;11.90;99.90;;;;;;5037279;28;20041;-89
2023/03/26 10:39:16;;;;;;;4.43;1.10;;;;;;;;;;5027611;28;20029;-89
2023/03/26 10:42:40;;;;;;;5.10;1.20;;;11.90;99.90;;;;;;5028914;28;20042;-88
2023/03/26 10:45:30;;;;;;;6.50;1.05;;;11.90;99.90;;;;;;5011070;28;20625;-87
2023/03/26 10:48:15;;;;;;;4.33;1.20;;;11.90;99.90;;;;;;5024332;28;20034;-88
2023/03/26 10:50:53;;;;;;;6.45;1.00;;;11.80;99.90;;;;;;5027487;28;20041;-87
2023/03/26 10:53:19;;;;;;;3.67;1.00;;;;;;;;;;5023587;28;20038;-89
2023/03/26 10:55:57;;;;;;;4.78;1.17;;;11.90;99.90;;;;;;5026754;28;20054;-88
2023/03/26 10:58:32;;;;;;;4.45;0.90;;;11.90;99.90;;;;;;5027217;28;20048;-87
2023/03/26 11:01:16;;;;;;;4.50;0.90;;;11.90;99.90;;;;;;5029081;28;20006;-87
2023/03/26 11:03:53;;;;;;;6.40;1.60;;;12.10;99.90;;;;;;5022338;28;20081;-88
2023/03/26 11:06:38;;;;;;;6.15;1.20;;;12.00;99.90;;;;;;5019887;28;20038;-90
2023/03/26 11:09:12;;;;;;;2.53;0.85;;;12.00;99.90;;;;;;5024449;28;20022;-89
2023/03/26 11:12:25;;;;;;;6.00;1.05;;;11.90;99.90;;;;;;5035983;28;20013;-87
2023/03/26 11:15:57;;;;;;;6.18;1.05;;;12.00;99.90;;;;;;5028734;28;20065;-87
2023/03/26 11:23:25;;;;;;;4.30;1.02;;;12.20;99.90;;;;;;5017277;28;20068;-87
2023/03/26 11:26:15;;;;;;;;;;;;;;;;;;;;;
2023/03/26 11:29:29;;;;;;;3.42;1.13;;;12.70;99.90;;;;;;5031560;28;20057;-86
2023/03/26 11:32:37;;;;;;;3.45;0.73;;;13.00;99.90;;;;;;5024206;28;20038;-88
2023/03/26 11:35:34;;;;;;;;;;;;;;;;;;;;;
2023/03/26 11:38:06;;;;;;;5.80;1.05;;;13.40;99.90;;;;;;5024423;28;20033;-86
2023/03/26 11:40:49;;;;;;;3.92;1.02;;;13.60;99.90;;;;;;5027278;28;20097;-89
2023/03/26 11:43:20;;;;;;;4.68;0.95;;;13.80;99.90;;;;;;5025733;28;20022;-87
2023/03/26 11:45:49;;;;;;;7.47;1.10;;;13.90;99.90;;;;;;5018126;28;20026;-88
2023/03/26 11:48:33;;;;;;;5.22;1.30;;;13.70;99.90;;;;;;5029446;28;20033;-91
2023/03/26 11:51:14;;;;;;;6.68;1.17;;;13.80;99.90;;;;;;5033883;28;20033;-88
2023/03/26 11:53:45;;;;;;;11.20;3.25;;;;;;;;;;5014878;28;20030;-87
2023/03/26 11:56:46;;;;;;;5.40;1.25;;;13.60;99.90;;;;;;5036745;28;20018;-89
2023/03/26 11:59:14;;;;;;;5.15;1.00;;;13.50;99.90;;;;;;5036285;28;20034;-89
2023/03/26 12:02:08;;;;;;;3.90;0.90;;;13.40;99.90;;;;;;5027847;28;20038;-87
2023/03/26 12:04:39;;;;;;;4.13;1.23;;;13.40;99.90;;;;;;5032006;28;20029;-87
2023/03/26 12:07:15;;;;;;;;;;;13.60;99.90;;;;;;5036267;28;20034;-86
2023/03/26 12:10:01;;;;;;;5.75;1.02;;;13.10;99.90;;;;;;5028858;28;19906;-88
2023/03/26 12:12:39;;;;;;;6.20;0.90;;;12.90;99.90;;;;;;5037124;28;20006;-86
2023/03/26 12:15:17;;;;;;;7.35;1.10;;;12.80;99.90;;;;;;5030702;28;20037;-87
2023/03/26 12:17:45;;;;;;;3.13;1.00;;;13.00;99.90;;;;;;5019264;28;20021;-85
2023/03/26 12:20:30;;;;;;;3.45;0.80;;;13.10;99.90;;;;;;5035444;28;20060;-85
2023/03/26 12:23:07;;;;;;;3.13;0.90;;;13.20;99.90;;;;;;5015471;28;20085;-87
2023/03/26 12:25:37;;;;;;;6.38;1.35;;;13.10;99.90;;;;;;5029846;28;20017;-85
2023/03/26 12:28:54;;;;;;;4.07;1.33;;;13.10;99.90;;;;;;5066141;23;20053;-85
2023/03/26 12:32:11;;;;;;;5.88;1.20;;;13.00;99.90;;;;;;5045525;28;20022;-85
2023/03/26 12:35:28;;;;;;;3.33;1.05;;;12.90;99.90;;;;;;5044064;28;20040;-85
2023/03/26 12:38:49;;;;;;;5.18;1.10;;;13.00;99.90;;;;;;5043120;28;20049;-86
2023/03/26 12:41:40;;;;;;;5.03;1.02;;;12.90;99.90;;;;;;5044340;28;20033;-84
2023/03/26 12:44:24;;;;;;;5.40;1.27;;;12.90;99.90;;;;;;5043270;28;20089;-85
2023/03/26 12:46:52;;;;;;;4.68;1.40;;;;;;;;;;5042662;28;20029;-83
2023/03/26 12:49:20;;;;;;;3.38;0.93;;;13.30;99.90;;;;;;5043165;28;20033;-84
2023/03/26 12:52:19;;;;;;;6.05;1.20;;;12.60;99.90;;;;;;5041790;28;20033;-84
2023/03/26 12:55:07;;;;;;;4.78;1.70;;;12.60;99.90;;;;;;5043807;28;20028;-88
2023/03/26 12:57:48;;;;;;;8.80;2.63;;;12.50;99.90;;;;;;5044086;28;20037;-85
2023/03/26 13:00:39;;;;;;;8.75;3.63;;;12.40;99.90;;;;;;5048244;28;20022;-86
2023/03/26 13:03:17;;;;;;;12.95;5.63;;;12.50;99.90;;;;;;5044091;28;20010;-88
2023/03/26 13:06:01;;;;;;;19.77;13.63;;;12.40;99.90;;;;;;5025192;28;20026;-84
2023/03/26 13:08:39;;;;;;;31.35;21.77;;;12.40;99.90;;;;;;5018965;28;20017;-85
2023/03/26 13:11:37;;;;;;;18.00;12.95;;;12.20;99.90;;;;;;5026661;28;20018;-86
2023/03/26 13:14:28;;;;;;;15.75;9.75;;;12.20;99.90;;;;;;5008807;28;20539;-84
2023/03/26 13:16:54;;;;;;;5.80;1.92;;;;;;;;;;5025720;28;20037;-86
2023/03/26 13:19:31;;;;;;;4.20;1.40;;;12.30;99.90;;;;;;5026376;28;20026;-85
2023/03/26 13:22:07;;;;;;;9.13;2.40;;;12.20;99.90;;;;;;5016129;28;20029;-86
2023/03/26 13:24:34;;;;;;;7.43;1.75;;;;;;;;;;5037636;28;20053;-87
2023/03/26 13:27:32;;;;;;;5.95;1.70;;;12.00;99.90;;;;;;5025859;28;20026;-85
2023/03/26 13:30:26;;;;;;;8.02;2.20;;;11.80;99.90;;;;;;5017696;28;20041;-85
2023/03/26 13:33:10;;;;;;;5.97;2.15;;;11.80;99.90;;;;;;5013547;28;20060;-85
2023/03/26 13:36:00;;;;;;;8.10;3.00;;;11.70;99.90;;;;;;5025851;28;20026;-84
2023/03/26 13:38:57;;;;;;;8.38;2.97;;;11.50;99.90;;;;;;5043449;28;20051;-87
2023/03/26 13:41:22;;;;;;;6.10;1.75;;;11.30;99.90;;;;;;5025673;28;20122;-87
2023/03/26 13:43:54;;;;;;;5.05;1.70;;;11.30;99.90;;;;;;5027649;28;20033;-88
2023/03/26 13:46:33;;;;;;;8.85;2.78;;;14.60;99.90;;;;;;5026566;28;20564;-88
2023/03/26 13:49:01;;;;;;;4.80;1.75;;;11.50;99.90;;;;;;5026444;28;20040;-87
2023/03/26 13:51:27;;;;;;;5.45;1.50;;;;;;;;;;5026537;28;20028;-88
2023/03/26 13:54:39;;;;;;;4.35;1.30;;;11.50;99.90;;;;;;5026085;28;20047;-88
2023/03/26 13:57:24;;;;;;;4.40;1.33;;;11.40;99.90;;;;;;5043519;28;20030;-88
2023/03/26 14:00:08;;;;;;;3.33;1.38;;;11.20;99.90;;;;;;5027149;28;20025;-87
2023/03/26 14:02:57;;;;;;;3.15;1.58;;;11.10;99.90;;;;;;5046225;28;20028;-87
2023/03/26 14:05:52;;;;;;;2.35;0.80;;;10.80;99.90;;;;;;5036137;28;20017;-87
2023/03/26 14:08:30;;;;;;;2.70;0.77;;;10.50;99.90;;;;;;5030114;28;20071;-88
2023/03/26 14:11:06;;;;;;;1.25;0.60;;;10.30;99.90;;;;;;5038810;28;20030;-87